Time;durP1;ratioP1;P1;durP2;ratioP2;P2;SDS_P1;SDS_P2;PMS_P1;PMS_P2;Temp;Humidity;BMP_temperature;BMP_pressure;BME280_temperature;BME280_humidity;BME280_pressure;Samples;Min_cycle;Max_cycle;Signal;HPM_P1;HPM_P2
2022/06/20 00:00:09;;;;;;;367.00;241.90;;;;;;;21.15;65.91;99661.34;406717;24;878;-80
2022/06/20 00:00:20;;;;;;;365.42;239.93;;;;;;;21.11;65.98;99663.44;406751;24;927;-80
2022/06/20 00:00:30;;;;;;;363.27;239.30;;;;;;;21.07;66.09;99663.81;406733;24;1308;-80
2022/06/20 00:00:41;;;;;;;359.23;234.20;;;;;;;21.07;66.31;99658.50;405435;24;1021;-80
2022/06/20 00:00:51;;;;;;;360.25;233.82;;;;;;;21.07;66.40;99661.16;408702;24;981;-80
2022/06/20 00:01:02;;;;;;;359.73;230.57;;;;;;;21.07;66.15;99655.81;408638;24;889;-80
2022/06/20 00:01:12;;;;;;;359.80;231.00;;;;;;;21.07;66.02;99669.13;408720;24;727;-80
2022/06/20 00:01:23;;;;;;;360.02;235.20;;;;;;;21.07;66.43;99661.16;408940;24;857;-80
2022/06/20 00:01:34;;;;;;;361.65;235.73;;;;;;;21.05;66.36;99655.13;410750;24;992;-80
2022/06/20 00:01:44;;;;;;;364.17;236.20;;;;;;;21.03;66.84;99657.06;408820;24;856;-80
2022/06/20 00:01:55;;;;;;;364.77;235.80;;;;;;;21.04;66.65;99664.06;406664;24;1216;-80
2022/06/20 00:02:25;;;;;;;364.10;237.40;;;;;;;21.02;66.67;99660.69;406875;24;1191;-80
2022/06/20 00:02:45;;;;;;;359.52;235.23;;;;;;;21.03;66.85;99667.69;409085;24;861;-80
2022/06/20 00:02:58;;;;;;;357.55;233.25;;;;;;;21.05;66.56;99665.75;408674;24;1429;-80
2022/06/20 00:03:21;;;;;;;360.65;235.27;;;;;;;21.04;66.60;99659.59;407024;24;837;-80
2022/06/20 00:03:37;;;;;;;359.23;238.30;;;;;;;21.04;66.74;99664.06;408696;24;826;-80
2022/06/20 00:03:48;;;;;;;364.55;244.40;;;;;;;21.03;66.83;99660.56;406821;24;905;-80
2022/06/20 00:03:58;;;;;;;361.92;241.32;;;;;;;21.04;66.42;99664.91;410647;24;1226;-80
2022/06/20 00:04:16;;;;;;;358.80;236.40;;;;;;;21.03;66.76;99662.38;408812;24;1040;-80
2022/06/20 00:04:26;;;;;;;357.70;235.38;;;;;;;21.03;66.74;99657.91;408503;24;854;-80
2022/06/20 00:04:37;;;;;;;361.10;238.70;;;;;;;21.02;66.38;99666.00;408457;24;1971;-80
2022/06/20 00:04:48;;;;;;;365.37;241.93;;;;;;;21.04;66.52;99661.41;408842;24;1606;-80
2022/06/20 00:04:59;;;;;;;365.83;239.65;;;;;;;21.03;66.39;99657.91;407341;24;1384;-80
2022/06/20 00:05:17;;;;;;;362.70;234.27;;;;;;;21.02;66.68;99663.34;405073;24;1290;-80
2022/06/20 00:05:33;;;;;;;358.65;229.80;;;;;;;21.04;66.15;99664.91;408534;24;5561;-80
2022/06/20 00:05:44;;;;;;;357.58;236.30;;;;;;;21.03;66.29;99663.22;406888;24;5378;-80
2022/06/20 00:05:54;;;;;;;357.87;239.43;;;;;;;21.01;66.48;99664.31;406735;24;1326;-80
2022/06/20 00:06:05;;;;;;;357.83;234.93;;;;;;;20.99;66.25;99664.44;408938;24;1179;-80
2022/06/20 00:06:18;;;;;;;360.90;235.77;;;;;;;20.96;66.14;99662.03;410655;24;1350;-80
2022/06/20 00:06:29;;;;;;;361.08;232.70;;;;;;;20.97;66.25;99665.53;406752;24;4988;-80
2022/06/20 00:06:39;;;;;;;362.73;235.77;;;;;;;20.98;66.08;99664.56;408726;24;762;-80
2022/06/20 00:06:50;;;;;;;362.83;235.60;;;;;;;20.89;66.28;99664.34;408676;24;764;-80
2022/06/20 00:07:00;;;;;;;364.47;236.70;;;;;;;20.88;66.37;99661.81;408847;24;806;-80
2022/06/20 00:07:11;;;;;;;364.75;238.43;;;;;;;20.88;66.14;99662.66;406525;24;1187;-80
2022/06/20 00:07:22;;;;;;;366.17;239.30;;;;;;;20.87;66.25;99663.63;406742;24;1326;-80
2022/06/20 00:07:32;;;;;;;362.35;236.50;;;;;;;20.88;66.53;99657.34;406883;24;1318;-80
2022/06/20 00:07:43;;;;;;;360.77;236.23;;;;;;;20.86;66.60;99661.09;409401;24;1192;-80
2022/06/20 00:07:53;;;;;;;360.38;236.15;;;;;;;20.86;66.28;99664.59;410531;24;1199;-80
2022/06/20 00:08:04;;;;;;;361.53;234.17;;;;;;;20.85;66.14;99665.59;410547;23;1218;-80
2022/06/20 00:08:16;;;;;;;359.30;230.95;;;;;;;20.84;66.41;99663.88;406774;24;1207;-80
2022/06/20 00:08:26;;;;;;;362.63;233.57;;;;;;;20.79;66.49;99655.47;406784;24;811;-80
2022/06/20 00:08:36;;;;;;;367.80;241.20;;;;;;;20.82;66.56;99660.50;407133;24;1493;-80
2022/06/20 00:08:49;;;;;;;369.63;241.07;;;;;;;20.81;66.71;99663.31;404884;24;819;-80
2022/06/20 00:09:00;;;;;;;366.75;237.60;;;;;;;20.83;66.59;99666.69;406766;24;1358;-80
2022/06/20 00:09:11;;;;;;;363.38;235.85;;;;;;;20.81;66.62;99658.81;404860;24;1350;-80
2022/06/20 00:09:22;;;;;;;362.95;237.02;;;;;;;20.80;66.28;99665.13;406747;24;930;-80
2022/06/20 00:09:32;;;;;;;366.43;237.77;;;;;;;20.77;66.34;99657.41;412237;23;1313;-80
2022/06/20 00:09:43;;;;;;;368.33;238.17;;;;;;;20.71;66.41;99657.91;408727;24;1515;-80
2022/06/20 00:09:53;;;;;;;369.77;238.63;;;;;;;20.69;66.38;99669.66;412574;23;1496;-80
2022/06/20 00:10:04;;;;;;;367.87;237.10;;;;;;;20.65;67.21;99658.41;410750;24;747;-80
2022/06/20 00:10:16;;;;;;;369.90;238.60;;;;;;;20.61;66.80;99651.66;409251;24;1255;-80
2022/06/20 00:10:28;;;;;;;369.80;238.18;;;;;;;20.64;66.59;99667.38;406859;24;1092;-80
2022/06/20 00:10:39;;;;;;;370.50;240.75;;;;;;;20.67;66.62;99656.47;405017;24;842;-79
2022/06/20 00:10:50;;;;;;;369.05;241.50;;;;;;;20.68;66.97;99658.16;406735;24;1358;-79
2022/06/20 00:11:01;;;;;;;367.52;240.02;;;;;;;20.63;66.66;99649.72;408902;24;869;-80
2022/06/20 00:11:15;;;;;;;369.20;240.77;;;;;;;20.64;66.49;99651.41;408773;24;1199;-80
2022/06/20 00:11:32;;;;;;;368.13;242.80;;;;;;;20.67;66.56;99659.13;406563;24;802;-80
2022/06/20 00:11:44;;;;;;;366.27;240.73;;;;;;;20.69;66.46;99664.34;410503;24;1383;-80
2022/06/20 00:11:54;;;;;;;362.70;235.93;;;;;;;20.70;66.56;99666.03;412465;23;1412;-80
2022/06/20 00:12:05;;;;;;;362.92;235.77;;;;;;;20.69;66.66;99662.53;410513;24;1255;-80
2022/06/20 00:12:21;;;;;;;359.35;231.27;;;;;;;20.68;66.35;99658.16;408658;24;884;-80
2022/06/20 00:12:31;;;;;;;360.40;233.75;;;;;;;20.66;66.19;99654.78;412685;23;1087;-80
2022/06/20 00:12:41;;;;;;;362.23;236.48;;;;;;;20.65;66.54;99658.41;410366;24;1295;-80
2022/06/20 00:12:52;;;;;;;362.63;238.03;;;;;;;20.61;66.64;99651.66;411309;24;897;-80
2022/06/20 00:13:02;;;;;;;364.35;237.73;;;;;;;20.63;66.79;99668.34;410776;24;1285;-80
2022/06/20 00:13:31;;;;;;;363.83;238.37;;;;;;;20.66;66.77;99659.25;408553;24;1303;-80
2022/06/20 00:13:43;;;;;;;359.70;238.48;;;;;;;20.68;66.63;99662.66;406524;24;5686;-80
2022/06/20 00:13:54;;;;;;;360.77;238.73;;;;;;;20.67;66.30;99653.81;407215;24;965;-80
2022/06/20 00:14:05;;;;;;;361.25;233.27;;;;;;;20.68;66.35;99658.16;406627;24;901;-80
2022/06/20 00:14:17;;;;;;;362.15;230.52;;;;;;;20.65;66.43;99653.09;410573;24;1252;-80
2022/06/20 00:14:27;;;;;;;362.15;231.07;;;;;;;20.65;66.71;99658.41;408538;24;1298;-80
2022/06/20 00:14:38;;;;;;;363.10;233.32;;;;;;;20.68;66.50;99658.16;406556;24;1305;-80
2022/06/20 00:14:51;;;;;;;366.37;237.93;;;;;;;20.64;66.85;99651.41;408569;24;1036;-80
2022/06/20 00:15:02;;;;;;;363.33;238.05;;;;;;;20.69;66.63;99657.19;408746;24;1082;-80
2022/06/20 00:15:33;;;;;;;363.35;237.63;;;;;;;20.69;66.69;99654.53;408645;24;1260;-79
2022/06/20 00:15:44;;;;;;;359.65;234.43;;;;;;;20.68;66.60;99660.81;408646;24;1259;-79
2022/06/20 00:15:56;;;;;;;357.70;236.15;;;;;;;20.68;66.75;99652.84;406543;24;1368;-79
2022/06/20 00:16:10;;;;;;;359.65;238.55;;;;;;;20.65;66.57;99658.41;406549;24;1508;-79
2022/06/20 00:16:21;;;;;;;362.25;237.93;;;;;;;20.71;66.63;99657.91;406591;24;5330;-79
2022/06/20 00:16:32;;;;;;;363.77;237.40;;;;;;;20.68;66.80;99647.53;409205;24;850;-79
2022/06/20 00:16:43;;;;;;;362.45;238.38;;;;;;;20.65;66.58;99653.09;408778;24;751;-79
2022/06/20 00:16:53;;;;;;;363.98;239.40;;;;;;;20.67;66.82;99656.47;408447;24;1075;-79
2022/06/20 00:17:08;;;;;;;363.57;239.30;;;;;;;20.65;66.76;99647.78;406654;24;1008;-80
2022/06/20 00:17:20;;;;;;;362.20;237.90;;;;;;;20.68;66.82;99657.31;406599;24;1587;-80
2022/06/20 00:17:30;;;;;;;362.25;236.32;;;;;;;20.67;66.85;99650.31;406750;24;914;-80
2022/06/20 00:17:40;;;;;;;361.42;231.65;;;;;;;20.68;66.68;99654.66;404790;24;1162;-80
2022/06/20 00:17:51;;;;;;;360.93;230.00;;;;;;;20.66;66.88;99659.25;404846;24;909;-80
2022/06/20 00:18:04;;;;;;;361.38;230.15;;;;;;;20.67;66.71;99659.13;405353;24;993;-80
2022/06/20 00:18:15;;;;;;;362.27;233.23;;;;;;;20.66;66.83;99649.47;406752;24;1527;-80
2022/06/20 00:18:25;;;;;;;364.07;239.00;;;;;;;20.69;66.80;99651.88;406897;24;912;-80
2022/06/20 00:18:35;;;;;;;362.98;235.57;;;;;;;20.68;66.93;99652.84;408677;24;1194;-80
2022/06/20 00:18:46;;;;;;;361.20;232.53;;;;;;;20.69;66.49;99654.53;408496;24;1261;-80
2022/06/20 00:18:56;;;;;;;358.95;229.98;;;;;;;20.68;66.51;99652.84;406822;24;803;-80
2022/06/20 00:19:09;;;;;;;359.13;232.00;;;;;;;20.62;66.97;99637.38;408848;24;1182;-80
2022/06/20 00:19:20;;;;;;;359.63;233.35;;;;;;;20.62;66.98;99650.69;408772;24;909;-80
2022/06/20 00:19:30;;;;;;;361.70;232.80;;;;;;;20.64;66.85;99651.41;406710;24;1215;-80
2022/06/20 00:19:42;;;;;;;362.42;232.18;;;;;;;20.64;66.87;99654.06;408605;24;1275;-80
2022/06/20 00:19:53;;;;;;;358.08;230.30;;;;;;;20.63;67.21;99655.03;408498;24;1035;-79
2022/06/20 00:20:03;;;;;;;360.42;233.85;;;;;;;20.58;67.02;99651.91;406624;24;838;-79
2022/06/20 00:20:14;;;;;;;358.97;233.50;;;;;;;20.58;67.16;99657.22;406948;24;915;-79
2022/06/20 00:20:25;;;;;;;363.33;234.93;;;;;;;20.62;66.85;99660.47;410668;24;829;-79
2022/06/20 00:20:35;;;;;;;364.02;235.35;;;;;;;20.62;67.07;99658.66;413240;23;872;-79
2022/06/20 00:20:46;;;;;;;365.83;233.27;;;;;;;20.62;66.99;99645.38;408755;24;1311;-79
2022/06/20 00:20:56;;;;;;;362.80;228.30;;;;;;;20.61;67.27;99646.34;410335;24;1313;-80
2022/06/20 00:21:10;;;;;;;363.50;228.40;;;;;;;20.62;67.17;99648.03;408744;24;816;-80
2022/06/20 00:21:21;;;;;;;365.20;232.90;;;;;;;20.61;67.10;99656.97;408704;24;1340;-80
2022/06/20 00:21:32;;;;;;;364.36;235.26;;;;;;;20.58;67.13;99647.44;406812;24;1276;-80
2022/06/20 00:21:42;;;;;;;365.37;238.00;;;;;;;20.60;67.37;99652.63;413220;23;1182;-80
2022/06/20 00:21:52;;;;;;;364.90;238.57;;;;;;;20.52;67.46;99645.28;410563;24;839;-80
2022/06/20 00:22:03;;;;;;;365.45;239.25;;;;;;;20.58;67.22;99654.56;408646;24;842;-80
2022/06/20 00:22:13;;;;;;;367.90;238.80;;;;;;;20.59;67.18;99646.47;404801;24;1250;-80
2022/06/20 00:22:24;;;;;;;368.42;238.85;;;;;;;20.58;67.19;99651.91;406686;24;1361;-80
2022/06/20 00:22:34;;;;;;;370.07;238.17;;;;;;;20.59;67.20;99648.28;408694;24;1385;-80
2022/06/20 00:22:45;;;;;;;369.60;236.32;;;;;;;20.60;67.54;99655.28;409665;24;1290;-80
2022/06/20 00:22:56;;;;;;;365.83;234.27;;;;;;;20.60;67.30;99660.59;408671;24;775;-79
2022/06/20 00:23:06;;;;;;;363.80;236.32;;;;;;;20.60;67.39;99649.97;408594;24;901;-79
2022/06/20 00:23:17;;;;;;;362.60;234.23;;;;;;;20.60;67.46;99652.63;409336;24;1003;-79
2022/06/20 00:23:28;;;;;;;364.65;236.70;;;;;;;20.58;67.63;99646.59;409130;24;830;-79
2022/06/20 00:23:38;;;;;;;363.37;236.93;;;;;;;20.56;67.63;99653.84;409483;24;1286;-80
2022/06/20 00:23:48;;;;;;;363.25;237.63;;;;;;;20.55;67.75;99652.16;408625;24;1307;-80
2022/06/20 00:23:59;;;;;;;362.57;234.47;;;;;;;20.56;67.60;99652.03;404778;24;1255;-80
2022/06/20 00:24:09;;;;;;;362.35;228.13;;;;;;;20.53;67.97;99649.63;406598;24;1175;-80
2022/06/20 00:24:20;;;;;;;365.03;227.13;;;;;;;20.50;67.84;99649.88;407165;24;1284;-80
2022/06/20 00:24:30;;;;;;;365.65;228.48;;;;;;;20.54;67.93;99642.47;408403;24;1260;-80
2022/06/20 00:24:40;;;;;;;363.87;229.57;;;;;;;20.53;67.59;99646.13;408541;23;1894;-80
2022/06/20 00:24:51;;;;;;;361.70;230.67;;;;;;;20.55;67.89;99647.69;406781;24;1171;-80
2022/06/20 00:25:01;;;;;;;363.30;229.60;;;;;;;20.56;68.09;99651.19;406772;24;1199;-80
2022/06/20 00:25:12;;;;;;;363.50;228.80;;;;;;;20.50;68.23;99651.69;408479;24;1249;-80
2022/06/20 00:25:23;;;;;;;361.85;225.93;;;;;;;20.51;68.16;99651.56;406875;24;853;-80
2022/06/20 00:25:35;;;;;;;361.33;227.43;;;;;;;20.52;67.98;99641.75;404820;24;1278;-80
2022/06/20 00:25:45;;;;;;;361.85;231.35;;;;;;;20.52;68.07;99655.06;405020;24;1444;-80
2022/06/20 00:25:55;;;;;;;361.77;233.83;;;;;;;20.52;68.32;99647.09;405166;24;1323;-80
2022/06/20 00:26:06;;;;;;;360.17;231.65;;;;;;;20.54;68.16;99646.00;408679;24;1198;-80
2022/06/20 00:26:17;;;;;;;358.97;225.27;;;;;;;20.54;68.17;99651.31;408893;24;798;-80
2022/06/20 00:26:28;;;;;;;360.10;223.57;;;;;;;20.53;68.13;99648.78;408942;24;1318;-80
2022/06/20 00:26:38;;;;;;;360.30;223.80;;;;;;;20.55;68.06;99646.84;406769;24;700;-80
2022/06/20 00:26:48;;;;;;;361.80;229.73;;;;;;;20.56;67.89;99653.84;406859;24;858;-80
2022/06/20 00:26:59;;;;;;;358.77;228.50;;;;;;;20.56;68.10;99653.84;405196;24;1432;-80
2022/06/20 00:27:10;;;;;;;361.67;231.77;;;;;;;20.55;67.93;99658.31;406561;24;786;-80
2022/06/20 00:27:20;;;;;;;362.60;232.95;;;;;;;20.56;68.20;99657.34;410818;24;849;-80
2022/06/20 00:27:31;;;;;;;364.08;231.20;;;;;;;20.51;68.21;99646.25;406683;24;1449;-80
2022/06/20 00:27:41;;;;;;;364.70;229.50;;;;;;;20.52;68.25;99641.75;404824;24;799;-80
2022/06/20 00:27:53;;;;;;;365.35;224.15;;;;;;;20.56;68.29;99653.84;406552;24;1146;-80
2022/06/20 00:28:04;;;;;;;360.88;225.20;;;;;;;20.57;68.34;99655.53;408570;24;798;-80
2022/06/20 00:28:15;;;;;;;354.92;220.52;;;;;;;20.55;68.26;99639.69;406793;24;763;-80
2022/06/20 00:28:25;;;;;;;357.43;226.27;;;;;;;20.52;68.33;99652.41;407381;24;807;-80
2022/06/20 00:28:36;;;;;;;359.70;231.85;;;;;;;20.52;68.14;99653.25;410819;24;877;-80
2022/06/20 00:28:46;;;;;;;360.77;235.27;;;;;;;20.53;68.29;99654.09;408726;24;814;-80
2022/06/20 00:28:57;;;;;;;359.45;231.07;;;;;;;20.51;68.30;99651.56;406912;24;1172;-80
2022/06/20 00:29:07;;;;;;;360.73;229.43;;;;;;;20.51;68.42;99648.91;406787;24;728;-80
2022/06/20 00:29:18;;;;;;;361.02;230.57;;;;;;;20.51;68.53;99651.56;406704;24;1306;-80
2022/06/20 00:29:28;;;;;;;363.80;234.20;;;;;;;20.51;68.31;99650.72;408771;24;1175;-79
2022/06/20 00:29:39;;;;;;;364.27;232.02;;;;;;;20.48;68.39;99656.28;406987;24;1016;-79
2022/06/20 00:29:50;;;;;;;364.25;231.55;;;;;;;20.49;68.69;99652.66;406870;24;911;-80
2022/06/20 00:30:00;;;;;;;360.02;230.23;;;;;;;20.48;68.57;99646.47;404585;24;1333;-80
2022/06/20 00:30:12;;;;;;;359.20;231.67;;;;;;;20.47;68.40;99652.78;404686;24;806;-80
2022/06/20 00:30:22;;;;;;;362.42;232.43;;;;;;;20.44;68.46;99653.03;406648;24;1677;-80
2022/06/20 00:30:33;;;;;;;363.53;230.73;;;;;;;20.48;68.43;99649.16;410547;24;1439;-80
2022/06/20 00:30:43;;;;;;;364.80;230.27;;;;;;;20.47;68.52;99644.78;408906;24;830;-80
2022/06/20 00:30:54;;;;;;;362.97;230.07;;;;;;;20.51;68.80;99648.06;407002;24;1181;-80
2022/06/20 00:31:04;;;;;;;362.60;229.18;;;;;;;20.50;68.22;99643.69;406923;24;1197;-80
2022/06/20 00:31:15;;;;;;;362.73;229.23;;;;;;;20.52;68.49;99647.09;405979;24;1239;-80
2022/06/20 00:31:25;;;;;;;363.25;231.10;;;;;;;20.52;68.51;99644.44;408527;24;1198;-80
2022/06/20 00:31:35;;;;;;;363.53;234.23;;;;;;;20.52;68.73;99642.59;410137;24;1329;-80
2022/06/20 00:31:46;;;;;;;362.58;233.13;;;;;;;20.50;68.75;99649.03;408587;24;1214;-80
2022/06/20 00:31:56;;;;;;;360.17;232.40;;;;;;;20.48;68.71;99646.47;406168;24;1309;-80
2022/06/20 00:32:07;;;;;;;358.97;232.43;;;;;;;20.44;68.97;99642.38;408761;24;1262;-80
2022/06/20 00:32:18;;;;;;;362.85;236.63;;;;;;;20.48;68.85;99649.16;409986;24;1293;-80
2022/06/20 00:32:28;;;;;;;362.93;232.47;;;;;;;20.49;68.48;99647.34;410441;24;1191;-80
2022/06/20 00:32:39;;;;;;;362.30;234.55;;;;;;;20.48;68.94;99645.63;410583;24;825;-80
2022/06/20 00:32:49;;;;;;;358.53;232.97;;;;;;;20.47;68.41;99647.47;408312;24;1195;-80
2022/06/20 00:33:00;;;;;;;357.80;233.82;;;;;;;20.48;68.87;99643.81;408673;24;1210;-80
2022/06/20 00:33:10;;;;;;;358.27;233.27;;;;;;;20.47;69.01;99643.94;406685;24;881;-80
2022/06/20 00:33:21;;;;;;;358.50;232.23;;;;;;;20.47;69.18;99642.13;406998;24;1019;-80
2022/06/20 00:33:31;;;;;;;360.10;231.17;;;;;;;20.48;68.81;99640.31;407103;24;806;-80
2022/06/20 00:33:42;;;;;;;359.67;230.30;;;;;;;20.43;68.97;99642.50;408657;24;1210;-80
2022/06/20 00:33:52;;;;;;;358.07;228.33;;;;;;;20.44;68.88;99638.88;408807;24;818;-80
2022/06/20 00:34:03;;;;;;;355.88;228.25;;;;;;;20.42;69.22;99646.97;408625;24;1259;-80
2022/06/20 00:34:13;;;;;;;358.10;230.87;;;;;;;20.39;69.13;99641.06;410747;24;876;-80
2022/06/20 00:34:24;;;;;;;359.17;232.68;;;;;;;20.43;69.07;99640.69;410679;24;1282;-79
2022/06/20 00:34:34;;;;;;;361.17;232.93;;;;;;;20.43;68.95;99647.81;408594;24;1298;-79
2022/06/20 00:34:44;;;;;;;359.85;230.40;;;;;;;20.44;69.08;99638.88;406834;24;1296;-79
2022/06/20 00:34:55;;;;;;;356.53;225.90;;;;;;;20.44;69.08;99639.72;406883;24;1265;-79
2022/06/20 00:35:06;;;;;;;355.55;224.93;;;;;;;20.43;68.94;99643.34;406737;24;779;-79
2022/06/20 00:35:16;;;;;;;355.35;227.30;;;;;;;20.44;69.34;99644.19;408683;24;1026;-79
2022/06/20 00:35:27;;;;;;;359.77;235.73;;;;;;;20.45;69.21;99645.88;408582;24;1168;-79
2022/06/20 00:35:37;;;;;;;360.35;236.65;;;;;;;20.44;69.01;99644.19;408546;24;1052;-79
2022/06/20 00:35:48;;;;;;;360.73;237.80;;;;;;;20.43;69.30;99640.69;408785;24;807;-79
2022/06/20 00:35:59;;;;;;;358.10;233.73;;;;;;;20.44;69.06;99649.50;406726;24;1214;-79
2022/06/20 00:36:09;;;;;;;359.02;234.27;;;;;;;20.41;69.23;99644.44;407334;24;834;-79
2022/06/20 00:36:19;;;;;;;359.70;233.83;;;;;;;20.34;69.17;99640.59;410733;24;862;-80
2022/06/20 00:36:30;;;;;;;362.67;235.73;;;;;;;20.33;69.31;99647.72;408671;24;806;-80
2022/06/20 00:36:40;;;;;;;364.80;236.63;;;;;;;20.33;69.21;99644.22;410535;24;1408;-80
2022/06/20 00:36:52;;;;;;;363.93;231.47;;;;;;;20.24;69.50;99646.63;410698;24;815;-79
2022/06/20 00:37:04;;;;;;;360.60;229.15;;;;;;;20.22;69.91;99647.72;408803;24;1270;-79
2022/06/20 00:37:17;;;;;;;359.67;232.02;;;;;;;20.23;69.94;99644.09;408653;24;1373;-79
2022/06/20 00:37:28;;;;;;;361.23;237.48;;;;;;;20.23;69.86;99647.59;408902;24;4848;-79
2022/06/20 00:37:38;;;;;;;362.55;236.35;;;;;;;20.22;69.77;99645.91;406634;24;992;-79
2022/06/20 00:37:49;;;;;;;363.40;235.20;;;;;;;20.21;70.11;99646.88;405016;24;831;-79
2022/06/20 00:38:01;;;;;;;362.75;234.93;;;;;;;20.25;69.84;99643.00;404774;24;1292;-79
2022/06/20 00:38:16;;;;;;;359.75;233.10;;;;;;;20.24;69.87;99651.97;408639;24;905;-79
2022/06/20 00:38:26;;;;;;;361.45;232.23;;;;;;;20.22;69.95;99640.59;406604;24;1429;-79
2022/06/20 00:38:37;;;;;;;364.90;235.77;;;;;;;20.25;69.77;99644.81;408878;24;865;-79
2022/06/20 00:38:49;;;;;;;367.70;235.67;;;;;;;20.23;69.81;99636.97;411265;24;888;-79
2022/06/20 00:38:59;;;;;;;364.27;239.20;;;;;;;20.29;69.68;99640.97;408638;24;1289;-79
2022/06/20 00:39:10;;;;;;;360.58;234.95;;;;;;;20.30;70.07;99641.81;406778;24;1423;-79
2022/06/20 00:39:20;;;;;;;358.13;232.73;;;;;;;20.30;69.90;99644.47;408810;24;1202;-79
2022/06/20 00:39:31;;;;;;;357.50;230.23;;;;;;;20.26;69.88;99641.19;408778;24;858;-79
2022/06/20 00:39:41;;;;;;;358.33;232.00;;;;;;;20.30;69.80;99642.66;408763;24;1188;-79
2022/06/20 00:39:51;;;;;;;358.20;233.90;;;;;;;20.30;69.72;99641.81;408593;24;1257;-79
2022/06/20 00:40:03;;;;;;;358.20;232.87;;;;;;;20.31;69.75;99638.19;409033;24;925;-79
2022/06/20 00:40:21;;;;;;;360.50;233.75;;;;;;;20.32;69.99;99639.88;408868;24;1004;-79
2022/06/20 00:40:36;;;;;;;360.95;228.57;;;;;;;20.32;70.04;99647.84;408735;24;5177;-80
2022/06/20 00:40:48;;;;;;;358.27;226.95;;;;;;;20.29;69.68;99643.63;408486;24;4579;-80
2022/06/20 00:41:00;;;;;;;357.83;226.95;;;;;;;20.30;70.15;99641.81;408748;24;960;-80
2022/06/20 00:41:20;;;;;;;357.42;225.02;;;;;;;20.30;70.16;99641.81;407419;24;1508;-80
2022/06/20 00:41:31;;;;;;;359.23;225.02;;;;;;;20.29;69.96;99637.44;410736;24;855;-80
2022/06/20 00:41:41;;;;;;;365.65;230.68;;;;;;;20.29;70.00;99645.44;408801;24;838;-80
2022/06/20 00:41:52;;;;;;;366.10;233.13;;;;;;;20.27;70.02;99643.75;410339;24;1271;-80
2022/06/20 00:42:03;;;;;;;364.80;234.60;;;;;;;20.26;70.21;99639.38;412709;23;846;-80
2022/06/20 00:42:13;;;;;;;359.23;231.73;;;;;;;20.27;70.20;99642.88;408711;24;778;-80
2022/06/20 00:42:23;;;;;;;361.47;232.67;;;;;;;20.25;70.02;99636.84;410754;24;1246;-80
2022/06/20 00:42:34;;;;;;;361.27;230.65;;;;;;;20.25;70.42;99636.84;408993;24;798;-80
2022/06/20 00:42:44;;;;;;;368.37;231.73;;;;;;;20.24;70.35;99638.66;409126;24;833;-81
2022/06/20 00:42:55;;;;;;;367.93;227.57;;;;;;;20.25;70.61;99637.69;406821;24;925;-80
2022/06/20 00:43:06;;;;;;;367.03;229.47;;;;;;;20.23;70.33;99638.78;410832;24;779;-79
2022/06/20 00:43:23;;;;;;;361.60;225.18;;;;;;;20.24;70.20;99643.97;405009;24;1382;-79
2022/06/20 00:43:37;;;;;;;359.30;225.90;;;;;;;20.26;70.38;99647.38;406845;24;5156;-80
2022/06/20 00:43:49;;;;;;;356.40;224.52;;;;;;;20.27;70.07;99640.22;407340;24;5228;-80
2022/06/20 00:44:01;;;;;;;352.67;221.48;;;;;;;20.26;70.58;99642.03;407190;24;867;-80
2022/06/20 00:44:13;;;;;;;355.38;222.95;;;;;;;20.24;70.49;99638.66;408929;24;779;-79
2022/06/20 00:44:31;;;;;;;360.60;229.02;;;;;;;20.21;70.34;99641.56;408935;24;862;-79
2022/06/20 00:44:49;;;;;;;359.17;231.77;;;;;;;20.23;70.19;99638.78;408653;24;5455;-79
2022/06/20 00:45:01;;;;;;;356.08;228.85;;;;;;;20.20;70.43;99637.22;410666;24;877;-79
2022/06/20 00:45:11;;;;;;;355.80;225.68;;;;;;;20.19;70.46;99640.84;407275;24;1191;-79
2022/06/20 00:45:23;;;;;;;357.77;225.20;;;;;;;20.20;70.50;99641.69;409186;24;1242;-79
2022/06/20 00:45:37;;;;;;;359.60;227.00;;;;;;;20.19;70.35;99646.16;408676;24;882;-79
2022/06/20 00:45:48;;;;;;;357.80;222.73;;;;;;;20.20;70.56;99645.19;408787;24;846;-80
2022/06/20 00:46:01;;;;;;;356.38;220.32;;;;;;;20.16;70.72;99635.78;408937;24;1207;-80
2022/06/20 00:46:17;;;;;;;357.48;224.90;;;;;;;20.19;70.58;99640.84;406595;24;1434;-80
2022/06/20 00:46:37;;;;;;;360.50;230.27;;;;;;;20.19;70.40;99634.69;409426;24;1304;-80
2022/06/20 00:46:51;;;;;;;359.98;229.80;;;;;;;20.21;70.75;99633.59;408374;24;5607;-79
2022/06/20 00:47:07;;;;;;;357.98;228.77;;;;;;;20.22;70.36;99637.94;406623;24;1303;-79
2022/06/20 00:47:20;;;;;;;359.58;229.73;;;;;;;20.23;70.48;99642.28;406850;24;881;-79
2022/06/20 00:47:32;;;;;;;361.02;234.30;;;;;;;20.23;70.43;99642.28;404952;24;980;-79
2022/06/20 00:47:42;;;;;;;360.33;231.85;;;;;;;20.22;70.63;99640.59;408963;24;842;-79
2022/06/20 00:47:53;;;;;;;361.57;234.30;;;;;;;20.20;70.69;99639.88;412891;23;1337;-79
2022/06/20 00:48:07;;;;;;;361.83;233.23;;;;;;;20.22;70.80;99640.59;408754;24;992;-79
2022/06/20 00:48:30;;;;;;;360.00;233.07;;;;;;;20.21;70.92;99644.22;408786;24;5138;-79
2022/06/20 00:48:46;;;;;;;357.70;228.00;;;;;;;20.22;70.71;99645.91;410545;24;1051;-80
2022/06/20 00:49:29;;;;;;;358.42;230.55;;;;;;;20.19;70.87;99648.81;410525;24;4939;-80
2022/06/20 00:49:44;;;;;;;359.50;231.05;;;;;;;20.16;70.92;99646.41;408585;24;909;-80
2022/06/20 00:50:05;;;;;;;357.63;226.07;;;;;;;20.16;71.20;99640.25;407405;24;1372;-80
2022/06/20 00:50:21;;;;;;;353.55;223.30;;;;;;;20.16;71.20;99641.09;411752;23;5416;-79
2022/06/20 00:50:32;;;;;;;358.02;233.10;;;;;;;20.16;71.18;99635.78;406946;24;5540;-80
2022/06/20 00:50:42;;;;;;;360.67;233.10;;;;;;;20.17;70.92;99640.13;409002;24;1063;-80
2022/06/20 00:50:55;;;;;;;360.07;230.53;;;;;;;20.17;70.93;99641.94;410786;24;1376;-79
2022/06/20 00:51:18;;;;;;;357.50;227.70;;;;;;;20.17;71.10;99639.28;404753;24;1328;-79
2022/06/20 00:51:35;;;;;;;359.17;233.25;;;;;;;20.20;71.07;99639.03;407002;24;862;-79
2022/06/20 00:51:56;;;;;;;362.67;234.70;;;;;;;20.21;70.88;99644.22;409044;24;5457;-80
2022/06/20 00:52:43;;;;;;;355.55;229.52;;;;;;;20.14;71.32;99637.72;406855;24;1472;-80
2022/06/20 00:53:04;;;;;;;355.77;227.75;;;;;;;20.15;71.40;99641.22;404987;24;1162;-80
2022/06/20 00:53:40;;;;;;;354.92;224.20;;;;;;;20.14;71.13;99642.19;404473;24;5292;-80
2022/06/20 00:53:55;;;;;;;365.85;238.75;;;;;;;20.12;71.19;99636.97;401050;24;5118;-79
2022/06/20 00:54:16;;;;;;;366.75;238.85;;;;;;;20.11;71.22;99637.09;404721;24;4987;-79
2022/06/20 00:54:32;;;;;;;364.10;235.20;;;;;;;20.09;71.43;99631.91;406790;24;4946;-79
2022/06/20 00:55:03;;;;;;;360.52;231.68;;;;;;;20.07;71.61;99631.19;406594;24;1390;-79
2022/06/20 00:55:18;;;;;;;361.50;236.73;;;;;;;20.09;71.34;99634.56;410154;24;5282;-79
2022/06/20 00:55:49;;;;;;;367.27;237.70;;;;;;;20.09;71.35;99633.72;410579;24;5079;-78
2022/06/20 00:56:02;;;;;;;361.98;234.20;;;;;;;20.07;71.57;99641.81;412522;23;1050;-79
2022/06/20 00:56:19;;;;;;;360.83;231.30;;;;;;;20.06;71.45;99645.44;406876;24;1345;-78
2022/06/20 00:56:32;;;;;;;361.95;231.10;;;;;;;20.05;71.29;99635.78;409001;24;707;-79
2022/06/20 00:56:55;;;;;;;362.13;235.25;;;;;;;20.05;71.41;99643.75;412582;23;1386;-79
2022/06/20 00:57:22;;;;;;;360.34;230.88;;;;;;;20.06;71.81;99640.13;406983;24;949;-79
2022/06/20 00:57:37;;;;;;;363.52;236.82;;;;;;;20.06;71.46;99634.81;406722;24;5170;-79
2022/06/20 00:58:06;;;;;;;365.55;238.73;;;;;;;20.06;71.44;99645.44;410459;24;5529;-79
2022/06/20 00:59:00;;;;;;;359.65;234.82;;;;;;;20.07;71.62;99636.50;408651;24;5402;-79